GRZ520 Details

Departure: Ted Stevens Anchorage International Airport (PANC)
Arrival: Adak Airport (PADK)
Route: TED J115 TUCKS J115 BINAL J115 DUT SIYNY ADK


Current Weather Information
PANC 212253Z 29005KT 10SM FEW045 SCT200 13/06 A3006 RMK AO2 SLP180 T01330061 $
PADK 212256Z AUTO 04018G23KT 10SM BKN008 OVC035 08/07 A2985 RMK AO2 RAE44 SLP108 P0000 T00780067